sensor_id;sensor_type;location;lat;lon;timestamp;P1;durP1;ratioP1;P2;durP2;ratioP2
30133;SDS011;16946;49.984;10.672;2023-11-21T00:00:00;3.67;;;1.93;;
30133;SDS011;16946;49.984;10.672;2023-11-21T00:00:31;2.63;;;1.80;;
30133;SDS011;16946;49.984;10.672;2023-11-21T00:01:02;4.73;;;2.20;;
30133;SDS011;16946;49.984;10.672;2023-11-21T00:01:34;3.50;;;1.98;;
30133;SDS011;16946;49.984;10.672;2023-11-21T00:02:04;3.47;;;1.90;;
30133;SDS011;16946;49.984;10.672;2023-11-21T00:02:35;2.83;;;1.53;;
30133;SDS011;16946;49.984;10.672;2023-11-21T00:03:06;3.42;;;1.60;;
30133;SDS011;16946;49.984;10.672;2023-11-21T00:03:37;2.27;;;1.80;;
30133;SDS011;16946;49.984;10.672;2023-11-21T00:04:07;2.07;;;1.80;;
30133;SDS011;16946;49.984;10.672;2023-11-21T00:04:38;4.80;;;1.80;;
30133;SDS011;16946;49.984;10.672;2023-11-21T00:05:09;2.70;;;1.93;;
30133;SDS011;16946;49.984;10.672;2023-11-21T00:05:41;1.98;;;1.52;;
30133;SDS011;16946;49.984;10.672;2023-11-21T00:06:11;4.43;;;2.30;;
30133;SDS011;16946;49.984;10.672;2023-11-21T00:06:42;3.73;;;2.20;;
30133;SDS011;16946;49.984;10.672;2023-11-21T00:07:12;2.63;;;1.80;;
30133;SDS011;16946;49.984;10.672;2023-11-21T00:07:43;6.07;;;2.10;;
30133;SDS011;16946;49.984;10.672;2023-11-21T00:08:14;6.13;;;1.80;;
30133;SDS011;16946;49.984;10.672;2023-11-21T00:08:44;5.33;;;1.83;;
30133;SDS011;16946;49.984;10.672;2023-11-21T00:09:15;3.07;;;1.90;;
30133;SDS011;16946;49.984;10.672;2023-11-21T00:09:45;5.77;;;2.53;;
30133;SDS011;16946;49.984;10.672;2023-11-21T00:10:16;6.30;;;2.30;;
30133;SDS011;16946;49.984;10.672;2023-11-21T00:10:47;8.57;;;2.30;;
30133;SDS011;16946;49.984;10.672;2023-11-21T00:11:18;4.10;;;2.03;;
30133;SDS011;16946;49.984;10.672;2023-11-21T00:11:48;2.43;;;1.90;;
30133;SDS011;16946;49.984;10.672;2023-11-21T00:12:19;3.13;;;1.97;;
30133;SDS011;16946;49.984;10.672;2023-11-21T00:12:50;3.08;;;1.92;;
30133;SDS011;16946;49.984;10.672;2023-11-21T00:13:21;5.67;;;2.00;;
30133;SDS011;16946;49.984;10.672;2023-11-21T00:13:51;1.97;;;1.60;;
30133;SDS011;16946;49.984;10.672;2023-11-21T00:14:22;6.83;;;1.97;;
30133;SDS011;16946;49.984;10.672;2023-11-21T00:14:53;4.03;;;2.10;;
30133;SDS011;16946;49.984;10.672;2023-11-21T00:15:23;5.37;;;1.60;;
30133;SDS011;16946;49.984;10.672;2023-11-21T00:15:54;4.67;;;2.10;;
30133;SDS011;16946;49.984;10.672;2023-11-21T00:16:24;3.27;;;1.50;;
30133;SDS011;16946;49.984;10.672;2023-11-21T00:16:55;2.63;;;1.77;;
30133;SDS011;16946;49.984;10.672;2023-11-21T00:17:26;4.40;;;1.90;;
30133;SDS011;16946;49.984;10.672;2023-11-21T00:17:56;2.90;;;1.60;;
30133;SDS011;16946;49.984;10.672;2023-11-21T00:18:27;3.73;;;2.00;;
30133;SDS011;16946;49.984;10.672;2023-11-21T00:18:57;3.33;;;1.60;;
30133;SDS011;16946;49.984;10.672;2023-11-21T00:19:28;2.90;;;1.60;;
30133;SDS011;16946;49.984;10.672;2023-11-21T00:19:58;3.27;;;1.70;;
30133;SDS011;16946;49.984;10.672;2023-11-21T00:20:29;3.93;;;2.10;;
30133;SDS011;16946;49.984;10.672;2023-11-21T00:20:59;2.60;;;2.17;;
30133;SDS011;16946;49.984;10.672;2023-11-21T00:21:30;4.13;;;2.70;;
30133;SDS011;16946;49.984;10.672;2023-11-21T00:22:00;3.53;;;2.73;;
30133;SDS011;16946;49.984;10.672;2023-11-21T00:22:31;4.03;;;2.10;;
30133;SDS011;16946;49.984;10.672;2023-11-21T00:23:02;2.58;;;2.05;;
30133;SDS011;16946;49.984;10.672;2023-11-21T00:23:33;3.63;;;2.30;;
30133;SDS011;16946;49.984;10.672;2023-11-21T00:24:03;6.60;;;2.60;;
30133;SDS011;16946;49.984;10.672;2023-11-21T00:24:34;4.87;;;2.57;;
30133;SDS011;16946;49.984;10.672;2023-11-21T00:25:05;6.13;;;2.67;;
30133;SDS011;16946;49.984;10.672;2023-11-21T00:25:38;3.83;;;2.08;;
30133;SDS011;16946;49.984;10.672;2023-11-21T00:26:10;4.32;;;2.15;;
30133;SDS011;16946;49.984;10.672;2023-11-21T00:26:40;2.20;;;1.70;;
30133;SDS011;16946;49.984;10.672;2023-11-21T00:27:11;4.07;;;2.37;;
30133;SDS011;16946;49.984;10.672;2023-11-21T00:27:41;5.33;;;2.53;;
30133;SDS011;16946;49.984;10.672;2023-11-21T00:28:12;3.30;;;2.20;;
30133;SDS011;16946;49.984;10.672;2023-11-21T00:28:42;2.83;;;2.20;;
30133;SDS011;16946;49.984;10.672;2023-11-21T00:29:13;7.00;;;2.47;;
30133;SDS011;16946;49.984;10.672;2023-11-21T00:29:44;6.80;;;2.40;;
30133;SDS011;16946;49.984;10.672;2023-11-21T00:30:14;4.83;;;2.13;;
30133;SDS011;16946;49.984;10.672;2023-11-21T00:30:45;4.97;;;2.23;;
30133;SDS011;16946;49.984;10.672;2023-11-21T00:31:16;3.90;;;2.03;;
30133;SDS011;16946;49.984;10.672;2023-11-21T00:31:46;3.37;;;2.57;;
30133;SDS011;16946;49.984;10.672;2023-11-21T00:32:17;6.37;;;2.30;;
30133;SDS011;16946;49.984;10.672;2023-11-21T00:32:47;5.00;;;2.63;;
30133;SDS011;16946;49.984;10.672;2023-11-21T00:33:18;5.63;;;3.30;;
30133;SDS011;16946;49.984;10.672;2023-11-21T00:33:48;7.80;;;3.40;;
30133;SDS011;16946;49.984;10.672;2023-11-21T00:34:19;6.37;;;4.47;;
30133;SDS011;16946;49.984;10.672;2023-11-21T00:34:49;6.67;;;3.80;;
30133;SDS011;16946;49.984;10.672;2023-11-21T00:35:20;4.63;;;2.20;;
30133;SDS011;16946;49.984;10.672;2023-11-21T00:35:50;7.17;;;3.57;;
30133;SDS011;16946;49.984;10.672;2023-11-21T00:36:21;4.67;;;3.40;;
30133;SDS011;16946;49.984;10.672;2023-11-21T00:36:52;5.60;;;3.70;;
30133;SDS011;16946;49.984;10.672;2023-11-21T00:37:22;8.00;;;3.27;;
30133;SDS011;16946;49.984;10.672;2023-11-21T00:37:53;5.68;;;3.38;;
30133;SDS011;16946;49.984;10.672;2023-11-21T00:38:24;4.00;;;2.87;;
30133;SDS011;16946;49.984;10.672;2023-11-21T00:38:54;3.20;;;2.03;;
30133;SDS011;16946;49.984;10.672;2023-11-21T00:39:25;5.87;;;1.90;;
30133;SDS011;16946;49.984;10.672;2023-11-21T00:39:56;6.20;;;2.37;;
30133;SDS011;16946;49.984;10.672;2023-11-21T00:40:26;6.37;;;1.97;;
30133;SDS011;16946;49.984;10.672;2023-11-21T00:40:57;7.03;;;2.33;;
30133;SDS011;16946;49.984;10.672;2023-11-21T00:41:28;5.47;;;2.10;;
30133;SDS011;16946;49.984;10.672;2023-11-21T00:41:58;2.43;;;1.60;;
30133;SDS011;16946;49.984;10.672;2023-11-21T00:42:29;1.77;;;1.43;;
30133;SDS011;16946;49.984;10.672;2023-11-21T00:42:59;4.30;;;1.90;;
30133;SDS011;16946;49.984;10.672;2023-11-21T00:43:30;2.28;;;1.60;;
30133;SDS011;16946;49.984;10.672;2023-11-21T00:44:01;2.93;;;1.77;;
30133;SDS011;16946;49.984;10.672;2023-11-21T00:44:32;6.30;;;1.80;;
30133;SDS011;16946;49.984;10.672;2023-11-21T00:45:04;7.28;;;2.10;;
30133;SDS011;16946;49.984;10.672;2023-11-21T00:45:36;3.83;;;1.85;;
30133;SDS011;16946;49.984;10.672;2023-11-21T00:46:06;2.33;;;1.80;;
30133;SDS011;16946;49.984;10.672;2023-11-21T00:46:37;4.20;;;1.70;;
30133;SDS011;16946;49.984;10.672;2023-11-21T00:47:08;3.27;;;1.53;;
30133;SDS011;16946;49.984;10.672;2023-11-21T00:47:38;6.40;;;1.87;;
30133;SDS011;16946;49.984;10.672;2023-11-21T00:48:09;2.33;;;1.40;;
30133;SDS011;16946;49.984;10.672;2023-11-21T00:48:39;1.70;;;1.37;;
30133;SDS011;16946;49.984;10.672;2023-11-21T00:49:10;3.03;;;1.80;;
30133;SDS011;16946;49.984;10.672;2023-11-21T00:49:41;1.80;;;1.53;;
30133;SDS011;16946;49.984;10.672;2023-11-21T00:50:11;2.23;;;1.43;;
30133;SDS011;16946;49.984;10.672;2023-11-21T00:50:42;5.83;;;1.47;;
30133;SDS011;16946;49.984;10.672;2023-11-21T00:51:13;3.87;;;1.57;;
30133;SDS011;16946;49.984;10.672;2023-11-21T00:51:44;4.28;;;1.60;;
30133;SDS011;16946;49.984;10.672;2023-11-21T00:52:15;2.53;;;1.80;;
30133;SDS011;16946;49.984;10.672;2023-11-21T00:52:46;4.27;;;1.67;;
30133;SDS011;16946;49.984;10.672;2023-11-21T00:53:16;2.47;;;1.57;;
30133;SDS011;16946;49.984;10.672;2023-11-21T00:53:47;3.20;;;1.63;;
30133;SDS011;16946;49.984;10.672;2023-11-21T00:54:18;4.10;;;1.30;;
30133;SDS011;16946;49.984;10.672;2023-11-21T00:54:48;4.10;;;1.60;;
30133;SDS011;16946;49.984;10.672;2023-11-21T00:55:19;3.43;;;1.80;;
30133;SDS011;16946;49.984;10.672;2023-11-21T00:55:51;3.38;;;1.77;;
30133;SDS011;16946;49.984;10.672;2023-11-21T00:56:27;6.00;;;1.88;;
30133;SDS011;16946;49.984;10.672;2023-11-21T00:56:57;4.37;;;1.90;;
30133;SDS011;16946;49.984;10.672;2023-11-21T00:57:28;3.30;;;1.23;;
30133;SDS011;16946;49.984;10.672;2023-11-21T00:57:59;2.42;;;1.63;;
30133;SDS011;16946;49.984;10.672;2023-11-21T00:58:29;2.70;;;1.50;;
30133;SDS011;16946;49.984;10.672;2023-11-21T00:59:00;2.73;;;1.70;;
30133;SDS011;16946;49.984;10.672;2023-11-21T00:59:31;2.07;;;1.33;;
30133;SDS011;16946;49.984;10.672;2023-11-21T01:00:01;2.37;;;1.63;;
30133;SDS011;16946;49.984;10.672;2023-11-21T01:00:37;3.05;;;1.58;;
30133;SDS011;16946;49.984;10.672;2023-11-21T01:01:09;3.38;;;1.73;;
30133;SDS011;16946;49.984;10.672;2023-11-21T01:01:40;2.40;;;1.63;;
30133;SDS011;16946;49.984;10.672;2023-11-21T01:02:10;2.57;;;1.73;;
30133;SDS011;16946;49.984;10.672;2023-11-21T01:02:41;2.40;;;1.60;;
30133;SDS011;16946;49.984;10.672;2023-11-21T01:03:11;7.03;;;1.80;;
30133;SDS011;16946;49.984;10.672;2023-11-21T01:03:42;4.83;;;1.47;;
30133;SDS011;16946;49.984;10.672;2023-11-21T01:04:13;4.80;;;2.17;;
30133;SDS011;16946;49.984;10.672;2023-11-21T01:04:43;7.50;;;5.40;;
30133;SDS011;16946;49.984;10.672;2023-11-21T01:05:14;8.80;;;5.03;;
30133;SDS011;16946;49.984;10.672;2023-11-21T01:05:45;5.30;;;4.73;;
30133;SDS011;16946;49.984;10.672;2023-11-21T01:06:16;5.57;;;3.85;;
30133;SDS011;16946;49.984;10.672;2023-11-21T01:06:47;4.63;;;3.27;;
30133;SDS011;16946;49.984;10.672;2023-11-21T01:07:17;3.80;;;3.07;;
30133;SDS011;16946;49.984;10.672;2023-11-21T01:07:50;4.75;;;2.97;;
30133;SDS011;16946;49.984;10.672;2023-11-21T01:08:20;5.57;;;3.77;;
30133;SDS011;16946;49.984;10.672;2023-11-21T01:08:51;4.93;;;3.33;;
30133;SDS011;16946;49.984;10.672;2023-11-21T01:09:22;3.63;;;2.90;;
30133;SDS011;16946;49.984;10.672;2023-11-21T01:09:53;3.65;;;2.50;;
30133;SDS011;16946;49.984;10.672;2023-11-21T01:10:24;5.00;;;3.07;;
30133;SDS011;16946;49.984;10.672;2023-11-21T01:10:54;2.67;;;2.23;;
30133;SDS011;16946;49.984;10.672;2023-11-21T01:11:25;3.80;;;2.00;;
30133;SDS011;16946;49.984;10.672;2023-11-21T01:11:56;4.90;;;2.85;;
30133;SDS011;16946;49.984;10.672;2023-11-21T01:12:27;5.50;;;2.53;;
30133;SDS011;16946;49.984;10.672;2023-11-21T01:12:57;3.80;;;2.70;;
30133;SDS011;16946;49.984;10.672;2023-11-21T01:13:28;4.63;;;2.43;;
30133;SDS011;16946;49.984;10.672;2023-11-21T01:13:59;2.72;;;2.45;;
30133;SDS011;16946;49.984;10.672;2023-11-21T01:14:30;3.07;;;2.00;;
30133;SDS011;16946;49.984;10.672;2023-11-21T01:15:00;2.37;;;1.87;;
30133;SDS011;16946;49.984;10.672;2023-11-21T01:15:31;2.87;;;1.97;;
30133;SDS011;16946;49.984;10.672;2023-11-21T01:16:02;8.13;;;2.50;;
30133;SDS011;16946;49.984;10.672;2023-11-21T01:16:34;5.03;;;2.58;;
30133;SDS011;16946;49.984;10.672;2023-11-21T01:17:04;4.13;;;2.03;;
30133;SDS011;16946;49.984;10.672;2023-11-21T01:17:35;5.87;;;2.37;;
30133;SDS011;16946;49.984;10.672;2023-11-21T01:18:06;3.53;;;2.63;;
30133;SDS011;16946;49.984;10.672;2023-11-21T01:18:36;3.10;;;2.27;;
30133;SDS011;16946;49.984;10.672;2023-11-21T01:19:07;5.43;;;2.10;;
30133;SDS011;16946;49.984;10.672;2023-11-21T01:19:37;6.57;;;2.17;;
30133;SDS011;16946;49.984;10.672;2023-11-21T01:20:08;5.03;;;2.57;;
30133;SDS011;16946;49.984;10.672;2023-11-21T01:20:42;3.20;;;2.17;;
30133;SDS011;16946;49.984;10.672;2023-11-21T01:21:14;4.85;;;2.20;;
30133;SDS011;16946;49.984;10.672;2023-11-21T01:21:44;2.87;;;2.10;;
30133;SDS011;16946;49.984;10.672;2023-11-21T01:22:15;5.03;;;2.30;;
30133;SDS011;16946;49.984;10.672;2023-11-21T01:22:46;2.97;;;1.80;;
30133;SDS011;16946;49.984;10.672;2023-11-21T01:23:19;5.63;;;2.38;;
30133;SDS011;16946;49.984;10.672;2023-11-21T01:23:49;3.73;;;3.10;;
30133;SDS011;16946;49.984;10.672;2023-11-21T01:24:20;3.83;;;2.43;;
30133;SDS011;16946;49.984;10.672;2023-11-21T01:24:51;3.23;;;1.80;;
30133;SDS011;16946;49.984;10.672;2023-11-21T01:25:22;3.80;;;2.42;;
30133;SDS011;16946;49.984;10.672;2023-11-21T01:25:53;4.00;;;2.37;;
30133;SDS011;16946;49.984;10.672;2023-11-21T01:26:25;8.50;;;2.33;;
30133;SDS011;16946;49.984;10.672;2023-11-21T01:26:56;3.77;;;1.90;;
30133;SDS011;16946;49.984;10.672;2023-11-21T01:27:27;5.37;;;2.07;;
30133;SDS011;16946;49.984;10.672;2023-11-21T01:27:57;5.47;;;2.20;;
30133;SDS011;16946;49.984;10.672;2023-11-21T01:28:28;6.90;;;2.07;;
30133;SDS011;16946;49.984;10.672;2023-11-21T01:28:58;6.47;;;2.10;;
30133;SDS011;16946;49.984;10.672;2023-11-21T01:29:29;4.87;;;1.73;;
30133;SDS011;16946;49.984;10.672;2023-11-21T01:30:01;8.23;;;2.15;;
30133;SDS011;16946;49.984;10.672;2023-11-21T01:30:33;5.03;;;2.20;;
30133;SDS011;16946;49.984;10.672;2023-11-21T01:31:03;4.00;;;3.17;;
30133;SDS011;16946;49.984;10.672;2023-11-21T01:31:34;8.20;;;5.27;;
30133;SDS011;16946;49.984;10.672;2023-11-21T01:32:04;9.50;;;6.77;;
30133;SDS011;16946;49.984;10.672;2023-11-21T01:32:37;8.20;;;6.30;;
30133;SDS011;16946;49.984;10.672;2023-11-21T01:33:09;12.07;;;6.15;;
30133;SDS011;16946;49.984;10.672;2023-11-21T01:33:39;9.97;;;6.43;;
30133;SDS011;16946;49.984;10.672;2023-11-21T01:34:10;8.57;;;4.90;;
30133;SDS011;16946;49.984;10.672;2023-11-21T01:34:41;6.77;;;4.50;;
30133;SDS011;16946;49.984;10.672;2023-11-21T01:35:11;4.87;;;3.37;;
30133;SDS011;16946;49.984;10.672;2023-11-21T01:35:42;4.77;;;3.00;;
30133;SDS011;16946;49.984;10.672;2023-11-21T01:36:12;6.57;;;2.50;;
30133;SDS011;16946;49.984;10.672;2023-11-21T01:36:45;3.23;;;2.90;;
30133;SDS011;16946;49.984;10.672;2023-11-21T01:37:16;5.40;;;3.13;;
30133;SDS011;16946;49.984;10.672;2023-11-21T01:37:47;7.22;;;4.50;;
30133;SDS011;16946;49.984;10.672;2023-11-21T01:38:18;8.57;;;4.60;;
30133;SDS011;16946;49.984;10.672;2023-11-21T01:38:49;7.80;;;4.40;;
30133;SDS011;16946;49.984;10.672;2023-11-21T01:39:19;8.17;;;4.50;;
30133;SDS011;16946;49.984;10.672;2023-11-21T01:39:54;5.50;;;2.20;;
30133;SDS011;16946;49.984;10.672;2023-11-21T01:40:27;6.50;;;2.20;;
30133;SDS011;16946;49.984;10.672;2023-11-21T01:40:58;4.15;;;2.67;;
30133;SDS011;16946;49.984;10.672;2023-11-21T01:41:30;5.35;;;2.80;;
30133;SDS011;16946;49.984;10.672;2023-11-21T01:42:01;4.77;;;2.57;;
30133;SDS011;16946;49.984;10.672;2023-11-21T01:42:31;4.67;;;2.83;;
30133;SDS011;16946;49.984;10.672;2023-11-21T01:43:02;2.73;;;2.30;;
30133;SDS011;16946;49.984;10.672;2023-11-21T01:43:33;3.42;;;2.50;;
30133;SDS011;16946;49.984;10.672;2023-11-21T01:44:04;2.97;;;2.30;;
30133;SDS011;16946;49.984;10.672;2023-11-21T01:44:37;3.63;;;2.50;;
30133;SDS011;16946;49.984;10.672;2023-11-21T01:45:09;4.15;;;1.98;;
30133;SDS011;16946;49.984;10.672;2023-11-21T01:45:40;6.60;;;2.55;;
30133;SDS011;16946;49.984;10.672;2023-11-21T01:46:10;2.97;;;2.07;;
30133;SDS011;16946;49.984;10.672;2023-11-21T01:46:41;7.07;;;1.90;;
30133;SDS011;16946;49.984;10.672;2023-11-21T01:47:12;2.63;;;1.90;;
30133;SDS011;16946;49.984;10.672;2023-11-21T01:47:43;3.65;;;2.47;;
30133;SDS011;16946;49.984;10.672;2023-11-21T01:48:15;3.30;;;2.63;;
30133;SDS011;16946;49.984;10.672;2023-11-21T01:48:46;12.10;;;5.60;;
30133;SDS011;16946;49.984;10.672;2023-11-21T01:49:18;7.85;;;4.00;;
30133;SDS011;16946;49.984;10.672;2023-11-21T01:49:50;5.22;;;3.63;;
30133;SDS011;16946;49.984;10.672;2023-11-21T01:50:21;8.73;;;2.73;;
30133;SDS011;16946;49.984;10.672;2023-11-21T01:50:52;7.55;;;3.50;;
30133;SDS011;16946;49.984;10.672;2023-11-21T01:51:23;5.63;;;3.20;;
30133;SDS011;16946;49.984;10.672;2023-11-21T01:51:53;4.43;;;3.00;;
30133;SDS011;16946;49.984;10.672;2023-11-21T01:52:24;7.60;;;3.10;;
30133;SDS011;16946;49.984;10.672;2023-11-21T01:52:55;7.00;;;3.47;;
30133;SDS011;16946;49.984;10.672;2023-11-21T01:53:26;5.55;;;3.22;;
30133;SDS011;16946;49.984;10.672;2023-11-21T01:53:57;6.65;;;2.80;;
30133;SDS011;16946;49.984;10.672;2023-11-21T01:54:29;5.43;;;2.78;;
30133;SDS011;16946;49.984;10.672;2023-11-21T01:55:02;3.58;;;2.85;;
30133;SDS011;16946;49.984;10.672;2023-11-21T01:55:34;5.25;;;3.00;;
30133;SDS011;16946;49.984;10.672;2023-11-21T01:56:05;5.63;;;3.00;;
30133;SDS011;16946;49.984;10.672;2023-11-21T01:56:38;3.50;;;2.72;;
30133;SDS011;16946;49.984;10.672;2023-11-21T01:57:09;4.72;;;2.53;;
30133;SDS011;16946;49.984;10.672;2023-11-21T01:57:39;5.33;;;2.90;;
30133;SDS011;16946;49.984;10.672;2023-11-21T01:58:11;4.82;;;2.72;;
30133;SDS011;16946;49.984;10.672;2023-11-21T01:58:42;5.60;;;3.38;;
30133;SDS011;16946;49.984;10.672;2023-11-21T01:59:20;5.40;;;2.65;;
30133;SDS011;16946;49.984;10.672;2023-11-21T01:59:52;3.38;;;2.47;;
30133;SDS011;16946;49.984;10.672;2023-11-21T02:00:24;4.88;;;2.92;;
30133;SDS011;16946;49.984;10.672;2023-11-21T02:00:58;11.05;;;3.50;;
30133;SDS011;16946;49.984;10.672;2023-11-21T02:01:28;6.47;;;3.10;;
30133;SDS011;16946;49.984;10.672;2023-11-21T02:01:59;6.17;;;3.03;;
30133;SDS011;16946;49.984;10.672;2023-11-21T02:02:30;10.37;;;3.43;;
30133;SDS011;16946;49.984;10.672;2023-11-21T02:03:00;7.30;;;3.13;;
30133;SDS011;16946;49.984;10.672;2023-11-21T02:03:31;4.57;;;3.00;;
30133;SDS011;16946;49.984;10.672;2023-11-21T02:04:02;4.87;;;3.47;;
30133;SDS011;16946;49.984;10.672;2023-11-21T02:04:33;4.80;;;3.15;;
30133;SDS011;16946;49.984;10.672;2023-11-21T02:05:04;7.25;;;3.90;;
30133;SDS011;16946;49.984;10.672;2023-11-21T02:05:34;5.43;;;3.57;;
30133;SDS011;16946;49.984;10.672;2023-11-21T02:06:05;4.70;;;4.20;;
30133;SDS011;16946;49.984;10.672;2023-11-21T02:06:36;6.57;;;3.20;;
30133;SDS011;16946;49.984;10.672;2023-11-21T02:07:07;5.63;;;3.73;;
30133;SDS011;16946;49.984;10.672;2023-11-21T02:07:38;4.90;;;3.50;;
30133;SDS011;16946;49.984;10.672;2023-11-21T02:08:09;4.63;;;3.40;;
30133;SDS011;16946;49.984;10.672;2023-11-21T02:08:40;3.40;;;2.78;;
30133;SDS011;16946;49.984;10.672;2023-11-21T02:09:14;3.45;;;2.40;;
30133;SDS011;16946;49.984;10.672;2023-11-21T02:09:45;2.72;;;2.17;;
30133;SDS011;16946;49.984;10.672;2023-11-21T02:10:16;5.50;;;3.03;;
30133;SDS011;16946;49.984;10.672;2023-11-21T02:10:46;5.00;;;2.27;;
30133;SDS011;16946;49.984;10.672;2023-11-21T02:11:17;6.00;;;2.00;;
30133;SDS011;16946;49.984;10.672;2023-11-21T02:11:49;11.60;;;3.38;;
30133;SDS011;16946;49.984;10.672;2023-11-21T02:12:19;5.27;;;2.53;;
30133;SDS011;16946;49.984;10.672;2023-11-21T02:12:50;6.00;;;2.73;;
30133;SDS011;16946;49.984;10.672;2023-11-21T02:13:21;5.15;;;2.88;;
30133;SDS011;16946;49.984;10.672;2023-11-21T02:13:52;5.37;;;2.90;;
30133;SDS011;16946;49.984;10.672;2023-11-21T02:14:24;5.60;;;2.45;;
30133;SDS011;16946;49.984;10.672;2023-11-21T02:14:56;5.57;;;2.58;;
30133;SDS011;16946;49.984;10.672;2023-11-21T02:15:27;3.57;;;2.37;;
30133;SDS011;16946;49.984;10.672;2023-11-21T02:15:58;2.92;;;2.33;;
30133;SDS011;16946;49.984;10.672;2023-11-21T02:16:29;8.02;;;2.72;;
30133;SDS011;16946;49.984;10.672;2023-11-21T02:17:01;5.32;;;3.17;;
30133;SDS011;16946;49.984;10.672;2023-11-21T02:17:33;3.92;;;2.47;;
30133;SDS011;16946;49.984;10.672;2023-11-21T02:18:04;8.17;;;2.63;;
30133;SDS011;16946;49.984;10.672;2023-11-21T02:18:36;2.63;;;2.05;;
30133;SDS011;16946;49.984;10.672;2023-11-21T02:19:06;2.20;;;2.00;;
30133;SDS011;16946;49.984;10.672;2023-11-21T02:19:40;3.60;;;2.40;;
30133;SDS011;16946;49.984;10.672;2023-11-21T02:20:11;4.60;;;2.30;;
30133;SDS011;16946;49.984;10.672;2023-11-21T02:20:45;5.93;;;2.40;;
30133;SDS011;16946;49.984;10.672;2023-11-21T02:21:17;4.13;;;2.13;;
30133;SDS011;16946;49.984;10.672;2023-11-21T02:21:49;3.00;;;2.63;;
30133;SDS011;16946;49.984;10.672;2023-11-21T02:22:21;4.57;;;2.58;;
30133;SDS011;16946;49.984;10.672;2023-11-21T02:22:56;3.53;;;2.40;;
30133;SDS011;16946;49.984;10.672;2023-11-21T02:23:30;4.05;;;2.47;;
30133;SDS011;16946;49.984;10.672;2023-11-21T02:24:00;3.03;;;2.50;;
30133;SDS011;16946;49.984;10.672;2023-11-21T02:24:31;6.93;;;2.57;;
30133;SDS011;16946;49.984;10.672;2023-11-21T02:25:02;4.13;;;2.80;;
30133;SDS011;16946;49.984;10.672;2023-11-21T02:25:34;5.07;;;2.28;;
30133;SDS011;16946;49.984;10.672;2023-11-21T02:26:07;3.55;;;2.60;;
30133;SDS011;16946;49.984;10.672;2023-11-21T02:26:37;3.10;;;2.03;;
30133;SDS011;16946;49.984;10.672;2023-11-21T02:27:08;6.53;;;2.07;;
30133;SDS011;16946;49.984;10.672;2023-11-21T02:27:38;5.67;;;2.50;;
30133;SDS011;16946;49.984;10.672;2023-11-21T02:28:09;2.60;;;2.23;;
30133;SDS011;16946;49.984;10.672;2023-11-21T02:28:42;3.03;;;2.53;;
30133;SDS011;16946;49.984;10.672;2023-11-21T02:29:13;4.27;;;2.27;;
30133;SDS011;16946;49.984;10.672;2023-11-21T02:29:46;2.22;;;2.03;;
30133;SDS011;16946;49.984;10.672;2023-11-21T02:30:17;6.63;;;3.15;;
30133;SDS011;16946;49.984;10.672;2023-11-21T02:30:48;4.93;;;3.10;;
30133;SDS011;16946;49.984;10.672;2023-11-21T02:31:25;3.03;;;2.70;;
30133;SDS011;16946;49.984;10.672;2023-11-21T02:31:57;5.22;;;3.10;;
30133;SDS011;16946;49.984;10.672;2023-11-21T02:32:28;5.90;;;3.20;;
30133;SDS011;16946;49.984;10.672;2023-11-21T02:33:01;7.82;;;3.05;;
30133;SDS011;16946;49.984;10.672;2023-11-21T02:33:32;4.40;;;2.87;;
30133;SDS011;16946;49.984;10.672;2023-11-21T02:34:04;5.78;;;3.53;;
30133;SDS011;16946;49.984;10.672;2023-11-21T02:34:35;4.13;;;3.40;;
30133;SDS011;16946;49.984;10.672;2023-11-21T02:35:06;5.53;;;4.20;;
30133;SDS011;16946;49.984;10.672;2023-11-21T02:35:38;10.40;;;5.28;;
30133;SDS011;16946;49.984;10.672;2023-11-21T02:36:08;10.07;;;4.30;;
30133;SDS011;16946;49.984;10.672;2023-11-21T02:36:39;5.57;;;3.67;;
30133;SDS011;16946;49.984;10.672;2023-11-21T02:37:10;9.53;;;4.43;;
30133;SDS011;16946;49.984;10.672;2023-11-21T02:37:40;8.43;;;4.43;;
30133;SDS011;16946;49.984;10.672;2023-11-21T02:38:11;3.97;;;3.58;;
30133;SDS011;16946;49.984;10.672;2023-11-21T02:38:42;6.23;;;2.80;;
30133;SDS011;16946;49.984;10.672;2023-11-21T02:39:12;5.53;;;3.50;;
30133;SDS011;16946;49.984;10.672;2023-11-21T02:39:43;4.97;;;3.53;;
30133;SDS011;16946;49.984;10.672;2023-11-21T02:40:14;4.63;;;3.20;;
30133;SDS011;16946;49.984;10.672;2023-11-21T02:40:47;5.50;;;4.28;;
30133;SDS011;16946;49.984;10.672;2023-11-21T02:41:19;5.30;;;3.55;;
30133;SDS011;16946;49.984;10.672;2023-11-21T02:41:49;3.60;;;3.00;;
30133;SDS011;16946;49.984;10.672;2023-11-21T02:42:20;6.13;;;3.47;;
30133;SDS011;16946;49.984;10.672;2023-11-21T02:42:51;6.03;;;3.77;;
30133;SDS011;16946;49.984;10.672;2023-11-21T02:43:21;6.33;;;3.60;;
30133;SDS011;16946;49.984;10.672;2023-11-21T02:43:52;5.60;;;3.60;;
30133;SDS011;16946;49.984;10.672;2023-11-21T02:44:22;6.80;;;3.07;;
30133;SDS011;16946;49.984;10.672;2023-11-21T02:44:53;7.23;;;3.83;;
30133;SDS011;16946;49.984;10.672;2023-11-21T02:45:24;5.43;;;3.20;;
30133;SDS011;16946;49.984;10.672;2023-11-21T02:45:54;7.97;;;3.03;;
30133;SDS011;16946;49.984;10.672;2023-11-21T02:46:25;5.87;;;3.00;;
30133;SDS011;16946;49.984;10.672;2023-11-21T02:46:56;3.20;;;2.90;;
30133;SDS011;16946;49.984;10.672;2023-11-21T02:47:27;9.38;;;3.28;;
30133;SDS011;16946;49.984;10.672;2023-11-21T02:47:58;3.88;;;3.03;;
30133;SDS011;16946;49.984;10.672;2023-11-21T02:48:29;6.47;;;2.83;;
30133;SDS011;16946;49.984;10.672;2023-11-21T02:49:03;5.10;;;2.78;;
30133;SDS011;16946;49.984;10.672;2023-11-21T02:49:36;5.90;;;2.78;;
30133;SDS011;16946;49.984;10.672;2023-11-21T02:50:06;4.43;;;2.80;;
30133;SDS011;16946;49.984;10.672;2023-11-21T02:50:38;8.23;;;2.95;;
30133;SDS011;16946;49.984;10.672;2023-11-21T02:51:09;7.27;;;3.60;;
30133;SDS011;16946;49.984;10.672;2023-11-21T02:51:39;4.67;;;3.17;;
30133;SDS011;16946;49.984;10.672;2023-11-21T02:52:10;5.10;;;2.90;;
30133;SDS011;16946;49.984;10.672;2023-11-21T02:52:40;6.17;;;3.10;;
30133;SDS011;16946;49.984;10.672;2023-11-21T02:53:11;4.07;;;3.30;;
30133;SDS011;16946;49.984;10.672;2023-11-21T02:53:42;4.15;;;3.08;;
30133;SDS011;16946;49.984;10.672;2023-11-21T02:54:13;5.20;;;3.23;;
30133;SDS011;16946;49.984;10.672;2023-11-21T02:54:43;5.67;;;3.20;;
30133;SDS011;16946;49.984;10.672;2023-11-21T02:55:14;4.70;;;3.27;;
30133;SDS011;16946;49.984;10.672;2023-11-21T02:55:45;4.37;;;3.07;;
30133;SDS011;16946;49.984;10.672;2023-11-21T02:56:15;4.30;;;2.97;;
30133;SDS011;16946;49.984;10.672;2023-11-21T02:56:46;5.70;;;2.80;;
30133;SDS011;16946;49.984;10.672;2023-11-21T02:57:16;8.27;;;3.20;;
30133;SDS011;16946;49.984;10.672;2023-11-21T02:57:47;6.50;;;3.07;;
30133;SDS011;16946;49.984;10.672;2023-11-21T02:58:18;4.10;;;2.70;;
30133;SDS011;16946;49.984;10.672;2023-11-21T02:58:48;4.07;;;2.53;;
30133;SDS011;16946;49.984;10.672;2023-11-21T02:59:19;2.93;;;2.40;;
30133;SDS011;16946;49.984;10.672;2023-11-21T02:59:49;3.70;;;2.33;;
30133;SDS011;16946;49.984;10.672;2023-11-21T03:00:20;6.60;;;3.20;;
30133;SDS011;16946;49.984;10.672;2023-11-21T03:00:54;4.47;;;2.75;;
30133;SDS011;16946;49.984;10.672;2023-11-21T03:01:24;5.67;;;3.03;;
30133;SDS011;16946;49.984;10.672;2023-11-21T03:01:55;5.37;;;2.83;;
30133;SDS011;16946;49.984;10.672;2023-11-21T03:02:26;5.90;;;2.63;;
30133;SDS011;16946;49.984;10.672;2023-11-21T03:02:57;3.40;;;2.90;;
30133;SDS011;16946;49.984;10.672;2023-11-21T03:03:28;6.33;;;2.80;;
30133;SDS011;16946;49.984;10.672;2023-11-21T03:03:59;8.93;;;2.70;;